sensor_id;sensor_type;location;lat;lon;timestamp;pressure;altitude;pressure_sealevel;temperature;humidity
39051;BME280;24805;55.852;37.644;2023-02-15T00:04:58;99663.91;;;0.74;58.12
39051;BME280;24805;55.852;37.644;2023-02-15T00:10:00;99656.19;;;0.72;57.66
39051;BME280;24805;55.852;37.644;2023-02-15T00:15:04;99650.75;;;0.75;57.55
39051;BME280;24805;55.852;37.644;2023-02-15T00:20:06;99659.13;;;0.67;57.74
39051;BME280;24805;55.852;37.644;2023-02-15T00:25:09;99657.56;;;0.65;57.61
39051;BME280;24805;55.852;37.644;2023-02-15T00:30:11;99662.78;;;0.65;58.03
39051;BME280;24805;55.852;37.644;2023-02-15T00:35:13;99658.28;;;0.67;57.98
39051;BME280;24805;55.852;37.644;2023-02-15T00:40:16;99660.19;;;0.65;58.03
39051;BME280;24805;55.852;37.644;2023-02-15T00:45:18;99659.84;;;0.69;57.94
39051;BME280;24805;55.852;37.644;2023-02-15T00:50:20;99665.91;;;0.70;57.62
39051;BME280;24805;55.852;37.644;2023-02-15T00:55:24;99663.63;;;0.65;57.76
39051;BME280;24805;55.852;37.644;2023-02-15T01:00:26;99663.72;;;0.64;57.74
39051;BME280;24805;55.852;37.644;2023-02-15T01:05:31;99687.44;;;0.61;57.95
39051;BME280;24805;55.852;37.644;2023-02-15T01:10:35;99684.00;;;0.60;57.66
39051;BME280;24805;55.852;37.644;2023-02-15T01:15:37;99685.63;;;0.50;57.87
39051;BME280;24805;55.852;37.644;2023-02-15T01:20:39;99682.28;;;0.48;57.97
39051;BME280;24805;55.852;37.644;2023-02-15T01:25:43;99683.13;;;0.49;57.41
39051;BME280;24805;55.852;37.644;2023-02-15T01:30:46;99688.34;;;0.49;57.14
39051;BME280;24805;55.852;37.644;2023-02-15T01:35:56;99668.34;;;0.60;57.17
39051;BME280;24805;55.852;37.644;2023-02-15T01:40:59;99694.28;;;0.51;56.83
39051;BME280;24805;55.852;37.644;2023-02-15T01:46:24;99686.59;;;0.60;56.91
39051;BME280;24805;55.852;37.644;2023-02-15T01:51:30;99691.78;;;0.49;56.15
39051;BME280;24805;55.852;37.644;2023-02-15T01:56:36;99693.97;;;0.55;56.13
39051;BME280;24805;55.852;37.644;2023-02-15T02:01:40;99704.50;;;0.54;56.16
39051;BME280;24805;55.852;37.644;2023-02-15T02:06:44;99696.69;;;0.54;55.99
39051;BME280;24805;55.852;37.644;2023-02-15T02:11:48;99691.06;;;0.47;55.85
39051;BME280;24805;55.852;37.644;2023-02-15T02:27:39;99713.38;;;0.51;55.73
39051;BME280;24805;55.852;37.644;2023-02-15T02:44:10;99702.41;;;0.59;55.00
39051;BME280;24805;55.852;37.644;2023-02-15T02:49:14;99723.88;;;0.39;54.90
39051;BME280;24805;55.852;37.644;2023-02-15T02:54:16;99723.63;;;0.42;54.59
39051;BME280;24805;55.852;37.644;2023-02-15T02:59:29;99727.44;;;0.38;54.98
39051;BME280;24805;55.852;37.644;2023-02-15T03:04:38;99736.41;;;0.33;55.29
39051;BME280;24805;55.852;37.644;2023-02-15T03:09:47;99739.97;;;0.32;54.60
39051;BME280;24805;55.852;37.644;2023-02-15T03:14:53;99745.06;;;0.34;54.46
39051;BME280;24805;55.852;37.644;2023-02-15T03:20:03;99738.91;;;0.35;54.95
39051;BME280;24805;55.852;37.644;2023-02-15T03:25:12;99753.94;;;0.31;54.40
39051;BME280;24805;55.852;37.644;2023-02-15T03:30:19;99759.47;;;0.27;54.46
39051;BME280;24805;55.852;37.644;2023-02-15T03:35:25;99757.59;;;0.29;54.73
39051;BME280;24805;55.852;37.644;2023-02-15T03:40:37;99737.66;;;0.28;54.85
39051;BME280;24805;55.852;37.644;2023-02-15T03:46:06;99739.53;;;0.26;55.06
39051;BME280;24805;55.852;37.644;2023-02-15T03:51:18;99754.19;;;0.16;55.17
39051;BME280;24805;55.852;37.644;2023-02-15T03:56:39;99752.00;;;0.10;55.69
39051;BME280;24805;55.852;37.644;2023-02-15T04:06:59;99761.16;;;0.03;54.63
39051;BME280;24805;55.852;37.644;2023-02-15T04:12:02;99752.31;;;-0.08;54.06
39051;BME280;24805;55.852;37.644;2023-02-15T04:17:08;99760.78;;;-0.04;54.02
39051;BME280;24805;55.852;37.644;2023-02-15T04:22:10;99760.84;;;-0.18;53.99
39051;BME280;24805;55.852;37.644;2023-02-15T04:27:31;99776.28;;;-0.15;53.68
39051;BME280;24805;55.852;37.644;2023-02-15T04:32:33;99773.19;;;-0.20;53.74
39051;BME280;24805;55.852;37.644;2023-02-15T04:37:36;99752.81;;;-0.28;53.90
39051;BME280;24805;55.852;37.644;2023-02-15T04:42:38;99768.47;;;-0.28;54.21
39051;BME280;24805;55.852;37.644;2023-02-15T04:47:41;99763.56;;;-0.32;53.68
39051;BME280;24805;55.852;37.644;2023-02-15T04:52:43;99759.38;;;-0.35;53.85
39051;BME280;24805;55.852;37.644;2023-02-15T04:57:45;99764.19;;;-0.29;53.60
39051;BME280;24805;55.852;37.644;2023-02-15T05:02:48;99772.13;;;-0.43;54.00
39051;BME280;24805;55.852;37.644;2023-02-15T05:07:50;99774.91;;;-0.46;53.47
39051;BME280;24805;55.852;37.644;2023-02-15T05:12:52;99779.94;;;-0.43;53.32
39051;BME280;24805;55.852;37.644;2023-02-15T05:17:54;99785.34;;;-0.46;53.31
39051;BME280;24805;55.852;37.644;2023-02-15T05:22:56;99781.69;;;-0.44;53.64
39051;BME280;24805;55.852;37.644;2023-02-15T05:27:58;99789.09;;;-0.38;52.86
39051;BME280;24805;55.852;37.644;2023-02-15T05:33:19;99770.00;;;-0.38;52.37
39051;BME280;24805;55.852;37.644;2023-02-15T05:38:21;99789.00;;;-0.36;52.82
39051;BME280;24805;55.852;37.644;2023-02-15T05:43:23;99793.47;;;-0.38;52.55
39051;BME280;24805;55.852;37.644;2023-02-15T05:48:27;99802.75;;;-0.34;52.89
39051;BME280;24805;55.852;37.644;2023-02-15T05:53:31;99805.41;;;-0.21;52.36
39051;BME280;24805;55.852;37.644;2023-02-15T05:58:38;99808.84;;;-0.08;52.35
39051;BME280;24805;55.852;37.644;2023-02-15T06:03:41;99811.47;;;-0.21;52.46
39051;BME280;24805;55.852;37.644;2023-02-15T06:08:44;99818.53;;;-0.23;52.35
39051;BME280;24805;55.852;37.644;2023-02-15T06:13:46;99826.03;;;-0.18;52.27
39051;BME280;24805;55.852;37.644;2023-02-15T06:18:48;99840.25;;;-0.10;52.33
39051;BME280;24805;55.852;37.644;2023-02-15T06:23:50;99838.38;;;-0.08;51.98
39051;BME280;24805;55.852;37.644;2023-02-15T06:28:52;99837.66;;;-0.10;51.98
39051;BME280;24805;55.852;37.644;2023-02-15T06:33:54;99842.22;;;-0.13;52.06
39051;BME280;24805;55.852;37.644;2023-02-15T06:39:03;99841.63;;;-0.04;52.06
39051;BME280;24805;55.852;37.644;2023-02-15T06:44:05;99827.13;;;-0.08;51.66
39051;BME280;24805;55.852;37.644;2023-02-15T06:49:07;99849.16;;;0.13;51.29
39051;BME280;24805;55.852;37.644;2023-02-15T06:54:09;99839.25;;;0.18;51.11
39051;BME280;24805;55.852;37.644;2023-02-15T06:59:12;99831.50;;;0.29;51.00
39051;BME280;24805;55.852;37.644;2023-02-15T07:04:14;99836.31;;;0.36;50.65
39051;BME280;24805;55.852;37.644;2023-02-15T07:09:17;99839.66;;;0.38;50.69
39051;BME280;24805;55.852;37.644;2023-02-15T07:14:19;99846.41;;;0.40;50.79
39051;BME280;24805;55.852;37.644;2023-02-15T07:19:21;99847.06;;;0.56;51.75
39051;BME280;24805;55.852;37.644;2023-02-15T07:24:23;99849.63;;;0.69;51.33
39051;BME280;24805;55.852;37.644;2023-02-15T07:29:25;99832.81;;;0.60;51.63
39051;BME280;24805;55.852;37.644;2023-02-15T07:34:27;99858.69;;;0.89;51.25
39051;BME280;24805;55.852;37.644;2023-02-15T07:39:30;99856.91;;;0.89;51.07
39051;BME280;24805;55.852;37.644;2023-02-15T07:44:32;99872.00;;;1.10;50.60
39051;BME280;24805;55.852;37.644;2023-02-15T07:49:34;99853.56;;;1.24;50.01
39051;BME280;24805;55.852;37.644;2023-02-15T07:54:36;99861.06;;;1.28;49.53
39051;BME280;24805;55.852;37.644;2023-02-15T07:59:38;99874.56;;;1.35;49.63
39051;BME280;24805;55.852;37.644;2023-02-15T08:04:40;99878.09;;;1.34;49.15
39051;BME280;24805;55.852;37.644;2023-02-15T08:09:42;99870.41;;;1.44;49.37
39051;BME280;24805;55.852;37.644;2023-02-15T08:14:44;99861.25;;;1.38;49.07
39051;BME280;24805;55.852;37.644;2023-02-15T08:19:47;99876.84;;;1.40;49.41
39051;BME280;24805;55.852;37.644;2023-02-15T08:24:49;99897.25;;;1.22;49.26
39051;BME280;24805;55.852;37.644;2023-02-15T08:29:51;99867.94;;;1.06;49.68
39051;BME280;24805;55.852;37.644;2023-02-15T08:34:53;99896.56;;;1.07;49.71
39051;BME280;24805;55.852;37.644;2023-02-15T08:39:55;99889.00;;;0.91;49.98
39051;BME280;24805;55.852;37.644;2023-02-15T08:44:58;99889.41;;;0.98;49.71
39051;BME280;24805;55.852;37.644;2023-02-15T08:50:00;99894.06;;;1.06;49.49
39051;BME280;24805;55.852;37.644;2023-02-15T08:55:03;99906.59;;;1.13;49.60
39051;BME280;24805;55.852;37.644;2023-02-15T09:00:06;99883.44;;;1.32;49.70
39051;BME280;24805;55.852;37.644;2023-02-15T09:05:09;99907.19;;;1.29;49.28
39051;BME280;24805;55.852;37.644;2023-02-15T09:10:11;99895.25;;;1.38;48.95
39051;BME280;24805;55.852;37.644;2023-02-15T09:15:14;99896.19;;;1.37;49.04
39051;BME280;24805;55.852;37.644;2023-02-15T09:20:16;99907.03;;;1.44;49.34
39051;BME280;24805;55.852;37.644;2023-02-15T09:25:19;99905.75;;;1.49;49.01
39051;BME280;24805;55.852;37.644;2023-02-15T09:30:21;99910.22;;;1.60;48.98
39051;BME280;24805;55.852;37.644;2023-02-15T09:35:25;99905.97;;;1.70;49.18
39051;BME280;24805;55.852;37.644;2023-02-15T09:40:31;99922.09;;;1.88;48.49
39051;BME280;24805;55.852;37.644;2023-02-15T10:13:12;99935.91;;;1.90;47.44
39051;BME280;24805;55.852;37.644;2023-02-15T10:34:07;99951.28;;;1.70;48.83
39051;BME280;24805;55.852;37.644;2023-02-15T10:39:24;99953.41;;;1.89;48.25
39051;BME280;24805;55.852;37.644;2023-02-15T10:55:40;99979.44;;;1.91;48.30
39051;BME280;24805;55.852;37.644;2023-02-15T11:06:05;99993.19;;;1.58;49.10
39051;BME280;24805;55.852;37.644;2023-02-15T11:11:12;99986.75;;;1.38;49.13
39051;BME280;24805;55.852;37.644;2023-02-15T11:16:21;99991.47;;;1.33;48.79
39051;BME280;24805;55.852;37.644;2023-02-15T11:21:45;100012.25;;;1.34;49.06
39051;BME280;24805;55.852;37.644;2023-02-15T11:26:59;100014.28;;;1.18;49.43
39051;BME280;24805;55.852;37.644;2023-02-15T11:37:37;100023.97;;;1.03;49.17
39051;BME280;24805;55.852;37.644;2023-02-15T11:42:42;100023.47;;;0.98;48.72
39051;BME280;24805;55.852;37.644;2023-02-15T11:47:45;100030.59;;;0.96;49.21
39051;BME280;24805;55.852;37.644;2023-02-15T11:52:47;100043.09;;;1.04;50.13
39051;BME280;24805;55.852;37.644;2023-02-15T12:03:22;100046.53;;;1.43;49.43
39051;BME280;24805;55.852;37.644;2023-02-15T12:08:42;100044.84;;;1.54;48.70
39051;BME280;24805;55.852;37.644;2023-02-15T12:13:59;100052.38;;;1.46;47.75
39051;BME280;24805;55.852;37.644;2023-02-15T12:19:02;100058.16;;;1.26;47.61
39051;BME280;24805;55.852;37.644;2023-02-15T12:24:22;100055.31;;;1.42;48.86
39051;BME280;24805;55.852;37.644;2023-02-15T12:29:28;100076.03;;;1.32;47.84
39051;BME280;24805;55.852;37.644;2023-02-15T12:34:36;100069.75;;;1.22;47.87
39051;BME280;24805;55.852;37.644;2023-02-15T12:39:52;100081.28;;;1.19;47.80
39051;BME280;24805;55.852;37.644;2023-02-15T12:45:01;100081.06;;;1.10;47.95
39051;BME280;24805;55.852;37.644;2023-02-15T12:50:07;100096.00;;;0.95;48.11
39051;BME280;24805;55.852;37.644;2023-02-15T12:55:24;100097.78;;;0.94;48.07
39051;BME280;24805;55.852;37.644;2023-02-15T13:00:29;100101.31;;;0.93;48.17
39051;BME280;24805;55.852;37.644;2023-02-15T13:05:36;100106.84;;;1.01;47.81
39051;BME280;24805;55.852;37.644;2023-02-15T13:10:42;100108.03;;;1.10;48.16
39051;BME280;24805;55.852;37.644;2023-02-15T13:15:58;100120.91;;;1.13;48.04
39051;BME280;24805;55.852;37.644;2023-02-15T13:21:10;100111.47;;;1.11;47.65
39051;BME280;24805;55.852;37.644;2023-02-15T13:26:20;100132.38;;;1.11;48.42
39051;BME280;24805;55.852;37.644;2023-02-15T13:31:27;100129.44;;;1.02;48.28
39051;BME280;24805;55.852;37.644;2023-02-15T13:42:14;100131.59;;;0.83;48.07
39051;BME280;24805;55.852;37.644;2023-02-15T13:52:53;100149.59;;;0.61;48.70
39051;BME280;24805;55.852;37.644;2023-02-15T13:58:17;100128.59;;;0.50;49.03
39051;BME280;24805;55.852;37.644;2023-02-15T14:19:28;100171.38;;;0.47;50.04
39051;BME280;24805;55.852;37.644;2023-02-15T14:30:22;100178.78;;;0.26;50.19
39051;BME280;24805;55.852;37.644;2023-02-15T14:35:29;100183.75;;;0.17;50.80
39051;BME280;24805;55.852;37.644;2023-02-15T14:40:51;100194.19;;;0.17;50.49
39051;BME280;24805;55.852;37.644;2023-02-15T14:46:32;100192.22;;;0.20;50.56
39051;BME280;24805;55.852;37.644;2023-02-15T15:07:19;100204.00;;;0.13;50.24
39051;BME280;24805;55.852;37.644;2023-02-15T15:22:36;100216.41;;;-0.05;50.88
39051;BME280;24805;55.852;37.644;2023-02-15T15:27:50;100224.66;;;0.02;50.01
39051;BME280;24805;55.852;37.644;2023-02-15T15:49:31;100238.56;;;-0.12;50.73
39051;BME280;24805;55.852;37.644;2023-02-15T15:54:38;100242.84;;;-0.11;50.51
39051;BME280;24805;55.852;37.644;2023-02-15T15:59:44;100249.72;;;-0.10;50.38
39051;BME280;24805;55.852;37.644;2023-02-15T16:04:46;100249.44;;;-0.19;50.46
39051;BME280;24805;55.852;37.644;2023-02-15T16:10:16;100260.75;;;-0.05;50.71
39051;BME280;24805;55.852;37.644;2023-02-15T16:15:24;100266.66;;;-0.17;50.57
39051;BME280;24805;55.852;37.644;2023-02-15T16:20:30;100264.16;;;-0.18;50.85
39051;BME280;24805;55.852;37.644;2023-02-15T16:31:10;100283.63;;;-0.24;51.48
39051;BME280;24805;55.852;37.644;2023-02-15T16:36:22;100282.41;;;-0.18;51.97
39051;BME280;24805;55.852;37.644;2023-02-15T16:41:27;100275.72;;;-0.22;51.19
39051;BME280;24805;55.852;37.644;2023-02-15T16:46:33;100273.13;;;-0.22;50.70
39051;BME280;24805;55.852;37.644;2023-02-15T16:51:41;100280.84;;;-0.21;50.85
39051;BME280;24805;55.852;37.644;2023-02-15T16:56:45;100279.34;;;-0.25;51.03
39051;BME280;24805;55.852;37.644;2023-02-15T17:01:48;100280.09;;;-0.23;51.23
39051;BME280;24805;55.852;37.644;2023-02-15T17:07:06;100282.06;;;-0.12;50.89
39051;BME280;24805;55.852;37.644;2023-02-15T17:12:47;100288.84;;;-0.10;51.17
39051;BME280;24805;55.852;37.644;2023-02-15T17:17:50;100289.88;;;-0.26;51.36
39051;BME280;24805;55.852;37.644;2023-02-15T17:22:52;100287.25;;;-0.26;51.88
39051;BME280;24805;55.852;37.644;2023-02-15T17:27:55;100314.09;;;-0.24;52.36
39051;BME280;24805;55.852;37.644;2023-02-15T17:33:00;100296.84;;;-0.27;52.52
39051;BME280;24805;55.852;37.644;2023-02-15T17:38:17;100302.56;;;-0.20;52.87
39051;BME280;24805;55.852;37.644;2023-02-15T17:43:20;100294.75;;;-0.36;53.16
39051;BME280;24805;55.852;37.644;2023-02-15T17:48:32;100296.44;;;-0.35;52.90
39051;BME280;24805;55.852;37.644;2023-02-15T17:53:35;100305.09;;;-0.35;52.92
39051;BME280;24805;55.852;37.644;2023-02-15T17:58:38;100296.53;;;-0.37;52.71
39051;BME280;24805;55.852;37.644;2023-02-15T18:03:50;100301.41;;;-0.30;52.26
39051;BME280;24805;55.852;37.644;2023-02-15T18:09:17;100297.94;;;-0.31;52.37
39051;BME280;24805;55.852;37.644;2023-02-15T18:14:38;100308.63;;;-0.36;52.59
39051;BME280;24805;55.852;37.644;2023-02-15T18:19:41;100294.09;;;-0.40;52.17
39051;BME280;24805;55.852;37.644;2023-02-15T18:24:48;100309.22;;;-0.30;52.45
39051;BME280;24805;55.852;37.644;2023-02-15T18:29:50;100314.78;;;-0.37;52.66
39051;BME280;24805;55.852;37.644;2023-02-15T18:34:55;100305.50;;;-0.26;53.55
39051;BME280;24805;55.852;37.644;2023-02-15T18:39:59;100302.31;;;-0.31;53.48
39051;BME280;24805;55.852;37.644;2023-02-15T18:45:13;100294.25;;;-0.27;53.65
39051;BME280;24805;55.852;37.644;2023-02-15T18:50:18;100290.94;;;-0.45;54.12
39051;BME280;24805;55.852;37.644;2023-02-15T18:55:25;100295.22;;;-0.44;54.35
39051;BME280;24805;55.852;37.644;2023-02-15T19:00:33;100296.25;;;-0.46;54.91
39051;BME280;24805;55.852;37.644;2023-02-15T19:05:35;100290.78;;;-0.57;55.02
39051;BME280;24805;55.852;37.644;2023-02-15T19:10:37;100297.59;;;-0.55;55.00
39051;BME280;24805;55.852;37.644;2023-02-15T19:15:40;100296.94;;;-0.58;55.10
39051;BME280;24805;55.852;37.644;2023-02-15T19:20:44;100301.31;;;-0.59;55.29
39051;BME280;24805;55.852;37.644;2023-02-15T19:25:48;100311.16;;;-0.64;55.37
39051;BME280;24805;55.852;37.644;2023-02-15T19:30:50;100299.41;;;-0.71;55.24
39051;BME280;24805;55.852;37.644;2023-02-15T19:35:53;100304.13;;;-0.78;56.28
39051;BME280;24805;55.852;37.644;2023-02-15T19:41:01;100312.84;;;-0.79;56.93
39051;BME280;24805;55.852;37.644;2023-02-15T19:46:08;100308.78;;;-0.83;56.88
39051;BME280;24805;55.852;37.644;2023-02-15T19:51:12;100303.34;;;-0.80;57.32
39051;BME280;24805;55.852;37.644;2023-02-15T19:56:21;100299.31;;;-0.70;56.97
39051;BME280;24805;55.852;37.644;2023-02-15T20:01:28;100294.91;;;-0.83;57.13
39051;BME280;24805;55.852;37.644;2023-02-15T20:06:30;100289.94;;;-0.88;57.62
39051;BME280;24805;55.852;37.644;2023-02-15T20:11:32;100290.03;;;-0.89;57.16
39051;BME280;24805;55.852;37.644;2023-02-15T20:16:34;100283.72;;;-0.85;57.17
39051;BME280;24805;55.852;37.644;2023-02-15T20:21:36;100286.16;;;-0.82;57.33
39051;BME280;24805;55.852;37.644;2023-02-15T20:26:39;100289.59;;;-0.82;56.83
39051;BME280;24805;55.852;37.644;2023-02-15T20:31:41;100290.34;;;-0.80;56.75
39051;BME280;24805;55.852;37.644;2023-02-15T20:36:44;100299.56;;;-0.74;56.62
39051;BME280;24805;55.852;37.644;2023-02-15T20:41:46;100292.84;;;-0.78;56.36
39051;BME280;24805;55.852;37.644;2023-02-15T20:46:50;100273.31;;;-0.85;57.01
39051;BME280;24805;55.852;37.644;2023-02-15T20:51:54;100299.25;;;-0.68;56.74
39051;BME280;24805;55.852;37.644;2023-02-15T20:56:56;100300.00;;;-0.66;56.63
39051;BME280;24805;55.852;37.644;2023-02-15T21:02:11;100307.63;;;-0.63;56.96
39051;BME280;24805;55.852;37.644;2023-02-15T21:07:16;100300.06;;;-0.67;57.30
39051;BME280;24805;55.852;37.644;2023-02-15T21:12:19;100298.22;;;-0.65;56.49
39051;BME280;24805;55.852;37.644;2023-02-15T21:17:22;100294.94;;;-0.69;56.41
39051;BME280;24805;55.852;37.644;2023-02-15T21:22:25;100302.94;;;-0.72;56.37
39051;BME280;24805;55.852;37.644;2023-02-15T21:27:27;100293.28;;;-0.70;56.80
39051;BME280;24805;55.852;37.644;2023-02-15T21:32:29;100295.13;;;-0.72;56.40
39051;BME280;24805;55.852;37.644;2023-02-15T21:37:34;100294.78;;;-0.66;56.57
39051;BME280;24805;55.852;37.644;2023-02-15T21:42:37;100289.91;;;-0.72;57.03
39051;BME280;24805;55.852;37.644;2023-02-15T21:47:57;100299.31;;;-0.70;56.83
39051;BME280;24805;55.852;37.644;2023-02-15T21:52:59;100291.59;;;-0.71;56.79
39051;BME280;24805;55.852;37.644;2023-02-15T21:58:03;100292.34;;;-0.69;57.05
39051;BME280;24805;55.852;37.644;2023-02-15T22:03:06;100299.16;;;-0.66;56.64
39051;BME280;24805;55.852;37.644;2023-02-15T22:08:11;100301.22;;;-0.57;57.49
39051;BME280;24805;55.852;37.644;2023-02-15T22:13:18;100297.59;;;-0.55;57.72
39051;BME280;24805;55.852;37.644;2023-02-15T22:18:29;100293.47;;;-0.43;57.48
39051;BME280;24805;55.852;37.644;2023-02-15T22:23:34;100286.50;;;-0.58;57.81
39051;BME280;24805;55.852;37.644;2023-02-15T22:28:37;100295.66;;;-0.51;58.52
39051;BME280;24805;55.852;37.644;2023-02-15T22:33:40;100299.28;;;-0.54;58.24
39051;BME280;24805;55.852;37.644;2023-02-15T22:38:42;100284.09;;;-0.61;58.65
39051;BME280;24805;55.852;37.644;2023-02-15T22:43:46;100273.34;;;-0.71;57.98
39051;BME280;24805;55.852;37.644;2023-02-15T22:48:49;100296.28;;;-0.62;56.75
39051;BME280;24805;55.852;37.644;2023-02-15T22:53:52;100301.94;;;-0.70;57.21
39051;BME280;24805;55.852;37.644;2023-02-15T22:58:59;100302.69;;;-0.67;57.47
39051;BME280;24805;55.852;37.644;2023-02-15T23:04:03;100297.50;;;-0.83;57.12
39051;BME280;24805;55.852;37.644;2023-02-15T23:09:05;100293.63;;;-0.92;57.13
39051;BME280;24805;55.852;37.644;2023-02-15T23:14:31;100300.88;;;-0.81;57.32
39051;BME280;24805;55.852;37.644;2023-02-15T23:19:34;100285.31;;;-0.98;57.72
39051;BME280;24805;55.852;37.644;2023-02-15T23:24:36;100260.16;;;-1.14;57.26
39051;BME280;24805;55.852;37.644;2023-02-15T23:29:38;100283.84;;;-1.02;57.23
39051;BME280;24805;55.852;37.644;2023-02-15T23:34:41;100274.91;;;-0.98;58.14
39051;BME280;24805;55.852;37.644;2023-02-15T23:39:43;100272.41;;;-1.00;57.44
39051;BME280;24805;55.852;37.644;2023-02-15T23:45:17;100274.31;;;-0.88;57.51
39051;BME280;24805;55.852;37.644;2023-02-15T23:50:27;100274.47;;;-0.91;56.66
39051;BME280;24805;55.852;37.644;2023-02-15T23:55:40;100290.94;;;-0.90;57.59
